Time;durP1;ratioP1;P1;durP2;ratioP2;P2;SDS_P1;SDS_P2;PMS_P1;PMS_P2;Temp;Humidity;BMP_temperature;BMP_pressure;BME280_temperature;BME280_humidity;BME280_pressure;Samples;Min_cycle;Max_cycle;Signal;HPM_P1;HPM_P2
2022/12/15 00:40:05;;;;;;;15.85;9.50;;;;;;;;;;8276079;28;20793;-78
2022/12/15 00:44:05;;;;;;;11.88;8.00;;;;;;;;;;8275005;28;20129;-77
2022/12/15 00:48:06;;;;;;;13.65;7.90;;;;;;;;;;8273140;28;20069;-78
2022/12/15 01:22:18;;;;;;;16.75;9.52;;;;;;;;;;8274344;28;20056;-78
2022/12/15 01:26:19;;;;;;;13.80;8.07;;;;;;;;;;8272284;28;20026;-78
2022/12/15 01:30:20;;;;;;;13.70;8.85;;;;;;;;;;8272163;28;20289;-78
2022/12/15 01:34:21;;;;;;;16.10;9.13;;;;;;;;;;8271559;28;20032;-78
2022/12/15 01:38:21;;;;;;;14.90;8.77;;;;;;;;;;8272110;28;20478;-78
2022/12/15 01:42:21;;;;;;;14.70;9.23;;;;;;;;;;8273910;28;20040;-78
2022/12/15 01:46:23;;;;;;;13.50;8.73;;;;;;;;;;8273996;28;20038;-78
2022/12/15 01:50:24;;;;;;;12.00;8.45;;;;;;;;;;8272140;28;20022;-78
2022/12/15 01:54:29;;;;;;;13.48;9.10;;;;;;;;;;8272768;28;20029;-78
2022/12/15 01:58:30;;;;;;;16.90;9.43;;;;;;;;;;8273713;28;20025;-78
2022/12/15 02:02:31;;;;;;;15.15;9.38;;;;;;;;;;8275114;28;20476;-78
2022/12/15 02:06:31;;;;;;;13.07;8.20;;;;;;;;;;8273907;28;20712;-78
2022/12/15 02:10:47;;;;;;;11.57;7.47;;;;;;;;;;8271312;28;20025;-78
2022/12/15 02:14:48;;;;;;;12.23;7.82;;;;;;;;;;8284145;28;20056;-78
2022/12/15 02:19:00;;;;;;;12.43;8.10;;;;;;;;;;8269637;28;20776;-78
2022/12/15 02:23:10;;;;;;;12.77;7.95;;;;;;;;;;8275018;28;20028;-78
2022/12/15 02:27:26;;;;;;;12.73;8.10;;;;;;;;;;8272455;28;20030;-78
2022/12/15 02:35:52;;;;;;;13.73;8.40;;;;;;;;;;8272879;28;20064;-78
2022/12/15 02:39:52;;;;;;;16.30;9.60;;;;;;;;;;8281886;28;20025;-78
2022/12/15 02:43:52;;;;;;;13.57;8.50;;;;;;;;;;8274567;28;20103;-78
2022/12/15 02:48:12;;;;;;;15.52;8.70;;;;;;;;;;8272341;28;20485;-78
2022/12/15 02:52:28;;;;;;;16.60;9.13;;;;;;;;;;8273683;28;20140;-78
2022/12/15 02:56:36;;;;;;;13.57;8.18;;;;;;;;;;8273223;28;20029;-78
2022/12/15 03:00:39;;;;;;;12.73;7.65;;;;;;;;;;8279570;28;20048;-78
2022/12/15 03:04:41;;;;;;;12.77;8.23;;;;;;;;;;8272789;28;20025;-78
2022/12/15 03:08:41;;;;;;;14.52;9.48;;;;;;;;;;8281042;28;20037;-77
2022/12/15 03:12:41;;;;;;;14.38;8.00;;;;;;;;;;8275471;28;20025;-78
2022/12/15 03:16:42;;;;;;;12.10;7.93;;;;;;;;;;8272510;28;20045;-79
2022/12/15 03:20:42;;;;;;;13.90;8.40;;;;;;;;;;8274401;28;20268;-78
2022/12/15 03:24:42;;;;;;;16.60;9.48;;;;;;;;;;8273064;28;20148;-78
2022/12/15 03:28:42;;;;;;;15.00;8.48;;;;;;;;;;8275305;28;20029;-79
2022/12/15 03:32:43;;;;;;;14.77;7.97;;;;;;;;;;8270080;28;20030;-77
2022/12/15 03:36:43;;;;;;;11.63;6.88;;;;;;;;;;8273880;28;20879;-77
2022/12/15 03:40:43;;;;;;;13.82;7.65;;;;;;;;;;8272267;28;20281;-78
2022/12/15 03:44:43;;;;;;;10.35;6.78;;;;;;;;;;8272755;28;20037;-78
2022/12/15 03:48:44;;;;;;;12.40;7.30;;;;;;;;;;8288317;28;20046;-78
2022/12/15 03:52:44;;;;;;;16.05;8.68;;;;;;;;;;8277560;28;20348;-78
2022/12/15 03:56:44;;;;;;;9.85;7.55;;;;;;;;;;8278765;28;20026;-78
2022/12/15 04:00:45;;;;;;;13.30;8.70;;;;;;;;;;8280456;28;20057;-78
2022/12/15 04:04:45;;;;;;;18.70;9.63;;;;;;;;;;8275318;28;20355;-78
2022/12/15 04:08:46;;;;;;;15.98;8.93;;;;;;;;;;8278593;28;20025;-77
2022/12/15 04:12:46;;;;;;;25.58;11.68;;;;;;;;;;8277825;28;20430;-78
2022/12/15 04:16:46;;;;;;;20.08;9.52;;;;;;;;;;8276239;28;20762;-78
2022/12/15 04:20:46;;;;;;;35.13;11.80;;;;;;;;;;8277051;28;20494;-78
2022/12/15 05:33:50;;;;;;;16.98;9.43;;;;;;;;;;8273754;28;20518;-78
2022/12/15 05:37:50;;;;;;;16.00;9.02;;;;;;;;;;8272471;28;20026;-78
2022/12/15 05:41:51;;;;;;;16.73;10.02;;;;;;;;;;8271336;28;20076;-78
2022/12/15 05:45:51;;;;;;;14.80;9.60;;;;;;;;;;8268567;28;20269;-79
2022/12/15 05:49:52;;;;;;;14.38;9.13;;;;;;;;;;8273397;28;20025;-78
2022/12/15 05:53:53;;;;;;;23.23;10.27;;;;;;;;;;8272980;28;20029;-78
2022/12/15 05:57:53;;;;;;;22.15;12.05;;;;;;;;;;8270373;28;20257;-78
2022/12/15 06:01:53;;;;;;;21.17;11.75;;;;;;;;;;8272951;28;21061;-78
2022/12/15 06:05:54;;;;;;;25.27;12.27;;;;;;;;;;8271818;28;20141;-78
2022/12/15 06:09:54;;;;;;;19.65;11.13;;;;;;;;;;8271979;28;20041;-78
2022/12/15 06:13:54;;;;;;;19.85;11.43;;;;;;;;;;8270693;28;20026;-78
2022/12/15 06:17:55;;;;;;;19.25;12.25;;;;;;;;;;8268619;28;20099;-78
2022/12/15 06:21:55;;;;;;;18.90;11.23;;;;;;;;;;8271737;28;20477;-77
2022/12/15 06:25:56;;;;;;;20.33;11.68;;;;;;;;;;8269142;28;20030;-78
2022/12/15 06:29:56;;;;;;;18.63;11.20;;;;;;;;;;8270398;28;20512;-78
2022/12/15 06:33:56;;;;;;;21.08;11.10;;;;;;;;;;8270799;28;20281;-78
2022/12/15 06:37:58;;;;;;;17.38;11.07;;;;;;;;;;8270479;28;20278;-78
2022/12/15 06:41:58;;;;;;;16.98;10.98;;;;;;;;;;8269278;28;20315;-77
2022/12/15 06:45:59;;;;;;;17.15;10.68;;;;;;;;;;8271398;28;20042;-78
2022/12/15 06:49:59;;;;;;;16.13;9.27;;;;;;;;;;8272313;28;20544;-77
2022/12/15 06:54:00;;;;;;;20.52;11.07;;;;;;;;;;8268552;28;20545;-77
2022/12/15 06:58:00;;;;;;;19.20;10.93;;;;;;;;;;8272088;28;20061;-77
2022/12/15 07:02:01;;;;;;;17.80;10.23;;;;;;;;;;8270419;28;20041;-78
2022/12/15 07:06:02;;;;;;;19.77;11.60;;;;;;;;;;8271168;28;20265;-78
2022/12/15 07:10:03;;;;;;;21.80;11.40;;;;;;;;;;8270512;28;20061;-77
2022/12/15 07:14:03;;;;;;;17.77;10.60;;;;;;;;;;8270455;28;20033;-77
2022/12/15 07:18:04;;;;;;;36.13;11.15;;;;;;;;;;8268252;28;20038;-78
2022/12/15 07:22:04;;;;;;;17.35;10.35;;;;;;;;;;8272618;28;20061;-78
2022/12/15 07:26:06;;;;;;;22.73;10.13;;;;;;;;;;8272838;28;20022;-79
2022/12/15 07:30:06;;;;;;;31.20;10.20;;;;;;;;;;8273107;28;20412;-79
2022/12/15 07:34:07;;;;;;;49.60;11.57;;;;;;;;;;8272156;28;20021;-79
2022/12/15 07:38:07;;;;;;;51.70;11.18;;;;;;;;;;8270606;28;20063;-79
2022/12/15 07:42:07;;;;;;;96.30;12.35;;;;;;;;;;8271819;28;20029;-79
2022/12/15 07:46:07;;;;;;;192.30;16.02;;;;;;;;;;8272758;28;20040;-79
2022/12/15 07:50:08;;;;;;;57.50;11.43;;;;;;;;;;8272500;28;20052;-79
2022/12/15 07:54:11;;;;;;;61.13;14.35;;;;;;;;;;8271759;28;20812;-80
2022/12/15 07:58:12;;;;;;;122.15;12.00;;;;;;;;;;8269602;28;20452;-79
2022/12/15 08:02:12;;;;;;;77.57;13.05;;;;;;;;;;8271032;28;20029;-79
2022/12/15 08:06:13;;;;;;;17.98;9.70;;;;;;;;;;8270371;28;20037;-79
2022/12/15 08:10:14;;;;;;;161.90;14.57;;;;;;;;;;8269314;28;20022;-79
2022/12/15 08:14:14;;;;;;;117.73;14.00;;;;;;;;;;8270080;28;20060;-80
2022/12/15 08:18:14;;;;;;;73.43;12.32;;;;;;;;;;8269400;28;20277;-80
2022/12/15 08:22:14;;;;;;;22.80;11.15;;;;;;;;;;8272011;28;20025;-79
2022/12/15 08:26:15;;;;;;;54.97;13.15;;;;;;;;;;8269945;28;20064;-79
2022/12/15 08:30:17;;;;;;;100.57;16.42;;;;;;;;;;8272250;28;20041;-79
2022/12/15 08:34:17;;;;;;;95.72;15.93;;;;;;;;;;8267322;28;20028;-80
2022/12/15 08:38:17;;;;;;;123.28;17.02;;;;;;;;;;8273654;28;20495;-79
2022/12/15 08:42:17;;;;;;;24.00;13.10;;;;;;;;;;8274762;28;21188;-79
2022/12/15 08:46:19;;;;;;;118.88;15.60;;;;;;;;;;8273046;28;20041;-79
2022/12/15 08:50:19;;;;;;;102.50;17.40;;;;;;;;;;8275432;28;20030;-79
2022/12/15 08:54:20;;;;;;;76.43;16.03;;;;;;;;;;8274705;28;20056;-79
2022/12/15 08:58:20;;;;;;;241.32;19.85;;;;;;;;;;8274348;28;20275;-79
2022/12/15 09:02:20;;;;;;;205.93;18.70;;;;;;;;;;8273176;28;20100;-79
2022/12/15 09:06:38;;;;;;;291.13;23.23;;;;;;;;;;8273018;28;20302;-79
2022/12/15 09:10:40;;;;;;;188.90;18.83;;;;;;;;;;8273550;28;20377;-79
2022/12/15 09:14:40;;;;;;;52.72;13.57;;;;;;;;;;8274196;28;20029;-79
2022/12/15 09:18:42;;;;;;;231.18;18.73;;;;;;;;;;8274491;28;20038;-80
2022/12/15 09:22:42;;;;;;;190.65;34.67;;;;;;;;;;8273993;28;20084;-79
2022/12/15 09:26:43;;;;;;;66.88;16.73;;;;;;;;;;8273311;28;20083;-79
2022/12/15 09:30:44;;;;;;;100.13;16.90;;;;;;;;;;8273679;28;20038;-79
2022/12/15 09:34:44;;;;;;;133.18;17.38;;;;;;;;;;8270905;28;20026;-79
2022/12/15 09:38:44;;;;;;;59.25;16.05;;;;;;;;;;8272060;28;20045;-79
2022/12/15 09:42:49;;;;;;;119.80;16.38;;;;;;;;;;8275793;28;20030;-79
2022/12/15 09:47:04;;;;;;;68.00;15.15;;;;;;;;;;8272099;28;20148;-80
2022/12/15 09:51:07;;;;;;;52.05;16.90;;;;;;;;;;8272891;28;20125;-80
2022/12/15 09:55:16;;;;;;;147.48;18.42;;;;;;;;;;8273092;28;20023;-79
2022/12/15 09:59:23;;;;;;;194.57;21.63;;;;;;;;;;8271645;28;20923;-79
2022/12/15 10:03:39;;;;;;;67.15;15.93;;;;;;;;;;8273269;28;20048;-79
2022/12/15 10:07:43;;;;;;;90.47;15.85;;;;;;;;;;8273409;28;21012;-79
2022/12/15 10:11:50;;;;;;;27.75;15.20;;;;;;;;;;8274275;28;20021;-79
2022/12/15 10:15:59;;;;;;;45.55;16.45;;;;;;;;;;8272286;28;20055;-79
2022/12/15 10:20:15;;;;;;;50.67;14.35;;;;;;;;;;8272495;28;20044;-79
2022/12/15 10:24:16;;;;;;;39.78;15.77;;;;;;;;;;8270411;28;20037;-79
2022/12/15 10:28:35;;;;;;;24.27;14.60;;;;;;;;;;8272297;28;20429;-79
2022/12/15 10:32:44;;;;;;;34.28;13.55;;;;;;;;;;8270604;28;20030;-79
2022/12/15 10:36:51;;;;;;;36.40;15.93;;;;;;;;;;8270535;28;20018;-79
2022/12/15 10:40:57;;;;;;;28.38;15.00;;;;;;;;;;8270057;28;20036;-79
2022/12/15 10:44:57;;;;;;;29.98;14.45;;;;;;;;;;8269400;28;20030;-79
2022/12/15 10:49:07;;;;;;;29.27;14.85;;;;;;;;;;8286775;28;20052;-79
2022/12/15 10:53:08;;;;;;;25.05;14.05;;;;;;;;;;8273494;28;21076;-79
2022/12/15 10:57:18;;;;;;;25.25;12.65;;;;;;;;;;8269837;28;20025;-79
2022/12/15 11:01:19;;;;;;;21.10;12.40;;;;;;;;;;8284166;28;20114;-79
2022/12/15 11:05:20;;;;;;;22.88;13.00;;;;;;;;;;8270755;28;20103;-79
2022/12/15 11:09:40;;;;;;;23.27;13.43;;;;;;;;;;8270191;28;20111;-81
2022/12/15 11:13:41;;;;;;;36.55;17.90;;;;;;;;;;8269980;28;20040;-79
2022/12/15 11:17:41;;;;;;;40.08;17.65;;;;;;;;;;8270785;28;20149;-79
2022/12/15 11:21:43;;;;;;;35.72;18.27;;;;;;;;;;8270180;28;20026;-79
2022/12/15 11:25:45;;;;;;;41.63;17.98;;;;;;;;;;8270206;28;20040;-79
2022/12/15 11:30:03;;;;;;;30.92;17.20;;;;;;;;;;8270481;28;20270;-79
2022/12/15 11:34:10;;;;;;;28.70;16.60;;;;;;;;;;8270163;28;20836;-79
2022/12/15 11:38:18;;;;;;;37.47;17.50;;;;;;;;;;8270761;28;20886;-79
2022/12/15 11:42:41;;;;;;;28.95;16.23;;;;;;;;;;8271846;28;20493;-79
2022/12/15 11:46:47;;;;;;;65.05;17.33;;;;;;;;;;8258494;28;20055;-79
2022/12/15 11:51:11;;;;;;;28.08;15.57;;;;;;;;;;8270562;28;20335;-79
2022/12/15 11:55:12;;;;;;;32.95;14.25;;;;;;;;;;8270853;28;20029;-79
2022/12/15 11:59:31;;;;;;;24.55;12.88;;;;;;;;;;8269136;28;20033;-78
2022/12/15 12:03:50;;;;;;;20.77;11.23;;;;;;;;;;8268642;28;20081;-78
2022/12/15 12:07:56;;;;;;;17.63;11.23;;;;;;;;;;8269979;28;20030;-79
2022/12/15 12:12:03;;;;;;;18.45;11.05;;;;;;;;;;8269547;28;20541;-79
2022/12/15 12:16:08;;;;;;;20.75;11.95;;;;;;;;;;8274650;28;20665;-79
2022/12/15 12:20:14;;;;;;;26.42;13.52;;;;;;;;;;8276056;28;20838;-79
2022/12/15 12:24:14;;;;;;;50.45;13.07;;;;;;;;;;8276945;28;20033;-79
2022/12/15 12:28:16;;;;;;;86.57;15.05;;;;;;;;;;8276420;28;21040;-79
2022/12/15 12:32:35;;;;;;;26.48;12.65;;;;;;;;;;8273749;28;21089;-78
2022/12/15 12:36:36;;;;;;;24.75;13.60;;;;;;;;;;8275529;28;20033;-79
2022/12/15 12:40:40;;;;;;;62.80;13.18;;;;;;;;;;8274251;28;20628;-79
2022/12/15 12:44:40;;;;;;;27.83;14.80;;;;;;;;;;8276909;28;20060;-79
2022/12/15 12:48:49;;;;;;;48.15;14.85;;;;;;;;;;8290008;28;20257;-78
2022/12/15 12:52:56;;;;;;;59.10;14.73;;;;;;;;;;8276330;28;20028;-78
2022/12/15 12:56:57;;;;;;;34.35;14.35;;;;;;;;;;8274918;28;20072;-79
2022/12/15 13:01:09;;;;;;;45.28;14.13;;;;;;;;;;8280875;28;20041;-79
2022/12/15 13:05:24;;;;;;;73.55;15.10;;;;;;;;;;8276012;28;20032;-79
2022/12/15 13:09:41;;;;;;;42.65;14.35;;;;;;;;;;8274796;28;20022;-79
2022/12/15 13:13:43;;;;;;;25.63;14.60;;;;;;;;;;8272701;28;20747;-79
2022/12/15 13:17:48;;;;;;;62.47;16.38;;;;;;;;;;8273084;28;20570;-79
2022/12/15 13:21:51;;;;;;;103.60;17.55;;;;;;;;;;8273303;28;20026;-79
2022/12/15 13:25:52;;;;;;;31.52;16.75;;;;;;;;;;8272561;28;20634;-78
2022/12/15 13:29:54;;;;;;;32.53;15.45;;;;;;;;;;8274154;28;20459;-78
2022/12/15 13:33:56;;;;;;;25.65;14.68;;;;;;;;;;8273721;28;20030;-79
2022/12/15 13:37:58;;;;;;;28.48;15.50;;;;;;;;;;8272630;28;20529;-79
2022/12/15 13:42:01;;;;;;;26.83;14.73;;;;;;;;;;8274634;28;20056;-79
2022/12/15 13:46:09;;;;;;;26.95;15.73;;;;;;;;;;8270791;28;20156;-79
2022/12/15 13:50:15;;;;;;;27.65;15.73;;;;;;;;;;8275123;28;20017;-79
2022/12/15 13:54:30;;;;;;;25.38;14.85;;;;;;;;;;8281310;28;20026;-79
2022/12/15 13:58:36;;;;;;;26.25;14.85;;;;;;;;;;8272859;28;20033;-79
2022/12/15 14:02:37;;;;;;;25.02;15.55;;;;;;;;;;8274441;28;20041;-78
2022/12/15 14:06:46;;;;;;;28.52;16.33;;;;;;;;;;8273665;28;20063;-78
2022/12/15 14:10:46;;;;;;;24.83;14.73;;;;;;;;;;8272271;28;20304;-79
2022/12/15 14:14:48;;;;;;;25.10;14.82;;;;;;;;;;8270414;28;20776;-79
2022/12/15 14:19:10;;;;;;;36.20;16.38;;;;;;;;;;8292105;28;20550;-79
2022/12/15 14:23:17;;;;;;;28.50;15.85;;;;;;;;;;8273975;28;20064;-79
2022/12/15 14:27:31;;;;;;;27.08;15.50;;;;;;;;;;8276420;28;20028;-78
2022/12/15 14:31:35;;;;;;;27.87;16.27;;;;;;;;;;8273454;28;20041;-78
2022/12/15 14:35:41;;;;;;;26.90;15.18;;;;;;;;;;8270711;28;20042;-78
2022/12/15 14:39:42;;;;;;;26.50;15.00;;;;;;;;;;8273612;28;20487;-78
2022/12/15 14:43:42;;;;;;;54.08;15.40;;;;;;;;;;8273778;28;20088;-79
2022/12/15 14:47:48;;;;;;;28.75;14.85;;;;;;;;;;8278245;28;20041;-78
2022/12/15 14:51:50;;;;;;;59.42;18.85;;;;;;;;;;8272597;28;20284;-78
2022/12/15 14:55:50;;;;;;;37.45;15.45;;;;;;;;;;8272824;28;20021;-78
2022/12/15 14:59:51;;;;;;;24.08;14.25;;;;;;;;;;8279823;28;20149;-78
2022/12/15 15:03:56;;;;;;;23.27;13.55;;;;;;;;;;8270902;28;20284;-78
2022/12/15 15:07:56;;;;;;;23.17;13.85;;;;;;;;;;8271533;28;20069;-78
2022/12/15 15:12:02;;;;;;;22.77;13.47;;;;;;;;;;8272803;28;20033;-78
2022/12/15 15:16:04;;;;;;;22.30;13.77;;;;;;;;;;8271154;28;20265;-78
2022/12/15 15:20:06;;;;;;;20.02;12.52;;;;;;;;;;8273208;28;20688;-78
2022/12/15 15:24:09;;;;;;;25.05;14.10;;;;;;;;;;8271856;28;20436;-78
2022/12/15 15:28:19;;;;;;;23.45;12.95;;;;;;;;;;8269804;28;20041;-78
2022/12/15 15:32:20;;;;;;;24.52;13.82;;;;;;;;;;8274293;28;20049;-78
2022/12/15 15:36:21;;;;;;;22.02;12.73;;;;;;;;;;8273688;28;20790;-78
2022/12/15 15:40:22;;;;;;;26.35;13.88;;;;;;;;;;8268920;28;20060;-78
2022/12/15 15:44:22;;;;;;;19.27;12.15;;;;;;;;;;8270135;28;20037;-78
2022/12/15 15:48:30;;;;;;;20.77;12.80;;;;;;;;;;8277206;28;20033;-78
2022/12/15 15:52:31;;;;;;;24.63;14.02;;;;;;;;;;8288354;28;20099;-78
2022/12/15 15:56:31;;;;;;;25.83;14.00;;;;;;;;;;8278010;28;20030;-78
2022/12/15 16:00:31;;;;;;;23.17;12.88;;;;;;;;;;8282945;28;20063;-78
2022/12/15 16:04:31;;;;;;;21.42;12.60;;;;;;;;;;8277541;28;20028;-78
2022/12/15 16:08:33;;;;;;;25.88;14.60;;;;;;;;;;8278822;28;20022;-77
2022/12/15 16:12:45;;;;;;;22.58;13.13;;;;;;;;;;8285566;28;20032;-78
2022/12/15 16:16:45;;;;;;;23.00;13.27;;;;;;;;;;8277428;28;20033;-77
2022/12/15 16:20:48;;;;;;;21.40;12.48;;;;;;;;;;8276440;28;20030;-77
2022/12/15 16:24:48;;;;;;;22.85;12.55;;;;;;;;;;8273194;28;20057;-78
2022/12/15 16:28:48;;;;;;;22.75;12.98;;;;;;;;;;8271468;28;20029;-77
2022/12/15 16:32:49;;;;;;;26.35;13.15;;;;;;;;;;8273055;28;20505;-78
2022/12/15 16:36:49;;;;;;;25.00;13.32;;;;;;;;;;8273158;28;20107;-77
2022/12/15 16:40:50;;;;;;;26.08;14.10;;;;;;;;;;8286258;28;20117;-77
2022/12/15 16:44:50;;;;;;;24.23;13.38;;;;;;;;;;8274755;28;20136;-78
2022/12/15 16:48:50;;;;;;;22.65;13.35;;;;;;;;;;8273994;28;20065;-78
2022/12/15 16:52:52;;;;;;;26.67;14.70;;;;;;;;;;8272237;28;20033;-77
2022/12/15 16:56:53;;;;;;;27.27;14.23;;;;;;;;;;8270705;28;20032;-77
2022/12/15 17:00:53;;;;;;;27.25;14.05;;;;;;;;;;8272441;28;20030;-77
2022/12/15 17:04:54;;;;;;;27.52;14.80;;;;;;;;;;8274056;28;20025;-77
2022/12/15 17:08:55;;;;;;;25.30;13.63;;;;;;;;;;8272782;28;20026;-77
2022/12/15 17:13:02;;;;;;;28.42;14.90;;;;;;;;;;8275701;28;20737;-76
2022/12/15 17:17:09;;;;;;;24.48;13.25;;;;;;;;;;8272843;28;20060;-77
2022/12/15 17:21:14;;;;;;;27.23;14.98;;;;;;;;;;8273063;28;20664;-77
2022/12/15 17:25:19;;;;;;;26.45;14.73;;;;;;;;;;8274783;28;20030;-77
2022/12/15 17:29:21;;;;;;;25.40;13.52;;;;;;;;;;8273634;28;20026;-77
2022/12/15 17:33:23;;;;;;;28.45;14.85;;;;;;;;;;8273978;28;20037;-76
2022/12/15 17:37:23;;;;;;;32.83;15.88;;;;;;;;;;8273617;28;20039;-76
2022/12/15 17:41:24;;;;;;;27.90;14.38;;;;;;;;;;8277399;28;20135;-78
2022/12/15 17:45:24;;;;;;;27.38;14.38;;;;;;;;;;8271929;28;20044;-77
2022/12/15 17:49:25;;;;;;;26.48;15.43;;;;;;;;;;8273844;28;20072;-77
2022/12/15 17:53:25;;;;;;;29.02;14.88;;;;;;;;;;8290172;28;20269;-76
2022/12/15 17:57:25;;;;;;;30.23;16.00;;;;;;;;;;8273243;28;20437;-77
2022/12/15 18:01:25;;;;;;;26.58;14.38;;;;;;;;;;8275649;28;20299;-77
2022/12/15 18:05:28;;;;;;;24.23;13.32;;;;;;;;;;8272927;28;20315;-76
2022/12/15 18:09:28;;;;;;;27.40;14.23;;;;;;;;;;8271000;28;20034;-77
2022/12/15 18:13:32;;;;;;;23.40;13.73;;;;;;;;;;8273492;28;20009;-77
2022/12/15 18:17:33;;;;;;;22.77;12.20;;;;;;;;;;8277763;28;20037;-78
2022/12/15 18:21:33;;;;;;;24.60;13.43;;;;;;;;;;8273246;28;20037;-77
2022/12/15 18:25:33;;;;;;;22.52;12.98;;;;;;;;;;8288663;28;20049;-77
2022/12/15 18:29:33;;;;;;;22.50;13.00;;;;;;;;;;8272325;28;20058;-78
2022/12/15 18:33:33;;;;;;;26.90;13.65;;;;;;;;;;8271717;28;20284;-77
2022/12/15 18:37:34;;;;;;;25.20;13.82;;;;;;;;;;8272679;28;20052;-76
2022/12/15 18:41:35;;;;;;;26.08;13.55;;;;;;;;;;8272080;28;20450;-77
2022/12/15 18:45:35;;;;;;;22.40;12.85;;;;;;;;;;8267082;28;20579;-76
2022/12/15 18:49:35;;;;;;;28.92;13.73;;;;;;;;;;8269906;28;20521;-77
2022/12/15 18:53:35;;;;;;;26.73;13.27;;;;;;;;;;8271438;28;20140;-76
2022/12/15 18:57:36;;;;;;;31.30;15.45;;;;;;;;;;8273112;28;20032;-76
2022/12/15 19:01:36;;;;;;;32.92;17.40;;;;;;;;;;8273509;28;20030;-77
2022/12/15 19:05:37;;;;;;;35.03;16.60;;;;;;;;;;8276494;28;20033;-77
2022/12/15 19:09:37;;;;;;;30.77;15.37;;;;;;;;;;8270841;28;20102;-79
2022/12/15 19:13:37;;;;;;;36.15;15.80;;;;;;;;;;8272962;28;20307;-76
2022/12/15 19:25:57;;;;;;;32.83;14.90;;;;;;;;;;8267950;28;20033;-78
2022/12/15 19:29:57;;;;;;;32.13;15.00;;;;;;;;;;8272010;28;20831;-77
2022/12/15 19:33:58;;;;;;;33.13;15.60;;;;;;;;;;8264418;28;20042;-77
2022/12/15 19:38:00;;;;;;;28.57;14.40;;;;;;;;;;8266497;28;20041;-77
2022/12/15 19:42:01;;;;;;;31.35;16.42;;;;;;;;;;8270384;28;20800;-77
2022/12/15 19:46:02;;;;;;;41.00;18.90;;;;;;;;;;8265623;28;20041;-77
2022/12/15 19:50:02;;;;;;;37.37;17.43;;;;;;;;;;8266905;28;20034;-77
2022/12/15 19:54:02;;;;;;;31.85;16.98;;;;;;;;;;8272070;28;20269;-77
2022/12/15 19:58:15;;;;;;;26.85;14.15;;;;;;;;;;8268164;28;20452;-76
2022/12/15 20:02:19;;;;;;;34.78;17.02;;;;;;;;;;8269295;28;20625;-77
2022/12/15 20:06:25;;;;;;;35.90;16.95;;;;;;;;;;8277887;28;20033;-77
2022/12/15 20:10:26;;;;;;;26.88;14.50;;;;;;;;;;8291759;28;20036;-79
2022/12/15 20:14:27;;;;;;;32.88;15.18;;;;;;;;;;8277430;28;21032;-80
2022/12/15 20:18:27;;;;;;;29.90;16.20;;;;;;;;;;8284326;28;20265;-79
2022/12/15 20:22:27;;;;;;;31.33;15.82;;;;;;;;;;8274943;28;20148;-79
2022/12/15 20:26:28;;;;;;;31.75;16.48;;;;;;;;;;8272602;28;20063;-78
2022/12/15 20:30:32;;;;;;;30.90;15.07;;;;;;;;;;8271143;28;20048;-79
2022/12/15 20:34:32;;;;;;;32.95;15.18;;;;;;;;;;8281522;28;20037;-79
2022/12/15 20:38:32;;;;;;;32.35;15.70;;;;;;;;;;8277251;28;20022;-78
2022/12/15 20:42:35;;;;;;;30.98;16.55;;;;;;;;;;8293037;28;20087;-79
2022/12/15 20:46:35;;;;;;;27.90;14.57;;;;;;;;;;8273714;28;20040;-79
2022/12/15 20:50:39;;;;;;;25.98;14.60;;;;;;;;;;8272322;28;20025;-79
2022/12/15 20:54:41;;;;;;;;;;;;;;;;;;8275351;28;20022;-79
2022/12/15 20:58:42;;;;;;;32.63;17.02;;;;;;;;;;8275262;28;19913;-79
2022/12/15 21:02:43;;;;;;;28.15;15.20;;;;;;;;;;8271553;28;20034;-79
2022/12/15 21:06:43;;;;;;;30.50;16.08;;;;;;;;;;8271937;28;20021;-79
2022/12/15 21:10:44;;;;;;;27.42;14.65;;;;;;;;;;8274081;28;20025;-80
2022/12/15 21:14:46;;;;;;;26.83;13.80;;;;;;;;;;8271036;28;20022;-80
2022/12/15 21:18:47;;;;;;;28.05;13.63;;;;;;;;;;8271052;28;20107;-78
2022/12/15 21:22:47;;;;;;;23.88;12.10;;;;;;;;;;8273753;28;20036;-79
2022/12/15 21:26:48;;;;;;;25.42;14.13;;;;;;;;;;8274075;28;20029;-79
2022/12/15 21:30:48;;;;;;;24.10;12.00;;;;;;;;;;8276143;28;20830;-79
2022/12/15 21:34:49;;;;;;;21.75;12.05;;;;;;;;;;8273864;28;20152;-79
2022/12/15 21:38:50;;;;;;;20.75;11.15;;;;;;;;;;8274250;28;20948;-81
2022/12/15 21:42:51;;;;;;;25.25;12.75;;;;;;;;;;8271779;28;20595;-78
2022/12/15 21:46:51;;;;;;;25.45;13.25;;;;;;;;;;8274243;28;20620;-79
2022/12/15 21:50:52;;;;;;;27.85;14.45;;;;;;;;;;8273259;28;20032;-79
2022/12/15 21:54:52;;;;;;;28.63;13.35;;;;;;;;;;8274987;28;20025;-78
2022/12/15 21:58:52;;;;;;;21.55;11.85;;;;;;;;;;8272066;28;20025;-78
2022/12/15 22:02:52;;;;;;;19.40;11.13;;;;;;;;;;8272576;28;20060;-77
2022/12/15 22:06:53;;;;;;;20.95;10.93;;;;;;;;;;8270327;28;20025;-78
2022/12/15 22:10:53;;;;;;;20.52;10.88;;;;;;;;;;8278944;28;20030;-79
2022/12/15 22:14:53;;;;;;;18.90;10.68;;;;;;;;;;8275486;28;20018;-78
2022/12/15 22:18:54;;;;;;;18.80;10.77;;;;;;;;;;8271363;28;20041;-78
2022/12/15 22:22:55;;;;;;;24.13;12.20;;;;;;;;;;8278609;28;20272;-78
2022/12/15 22:26:55;;;;;;;20.65;10.75;;;;;;;;;;8280883;28;20025;-78
2022/12/15 22:30:55;;;;;;;18.35;10.07;;;;;;;;;;8271575;28;20065;-78
2022/12/15 22:34:56;;;;;;;20.20;9.68;;;;;;;;;;8276090;28;20041;-78
2022/12/15 22:38:56;;;;;;;20.00;9.77;;;;;;;;;;8288771;28;20143;-78
2022/12/15 22:42:57;;;;;;;18.65;9.55;;;;;;;;;;8275955;28;20289;-78
2022/12/15 22:46:58;;;;;;;16.23;8.82;;;;;;;;;;8273414;28;20037;-78
2022/12/15 22:50:59;;;;;;;18.95;9.80;;;;;;;;;;8273456;28;20517;-78
2022/12/15 22:55:00;;;;;;;18.23;9.52;;;;;;;;;;8273442;28;20091;-79
2022/12/15 22:59:04;;;;;;;16.42;9.77;;;;;;;;;;8269956;28;20053;-79
2022/12/15 23:03:04;;;;;;;;;;;;;;;;;;8270022;28;20034;-78
2022/12/15 23:07:06;;;;;;;18.92;9.73;;;;;;;;;;8270968;28;20007;-78
2022/12/15 23:19:45;;;;;;;17.58;9.23;;;;;;;;;;8271868;28;20071;-79
2022/12/15 23:23:46;;;;;;;16.85;9.40;;;;;;;;;;8272189;28;20104;-79
2022/12/15 23:27:46;;;;;;;20.58;10.07;;;;;;;;;;8271812;28;20025;-78
2022/12/15 23:31:46;;;;;;;19.45;9.57;;;;;;;;;;8272379;28;20044;-79
2022/12/15 23:35:47;;;;;;;17.77;9.57;;;;;;;;;;8273153;28;20028;-78
2022/12/15 23:39:47;;;;;;;20.98;9.80;;;;;;;;;;8272300;28;20036;-78
2022/12/15 23:43:47;;;;;;;17.48;8.70;;;;;;;;;;8278579;28;20030;-78
2022/12/15 23:47:47;;;;;;;16.53;9.07;;;;;;;;;;8270743;28;20751;-79
2022/12/15 23:51:48;;;;;;;16.30;8.90;;;;;;;;;;8288258;28;20280;-79
2022/12/15 23:55:48;;;;;;;19.50;10.30;;;;;;;;;;8270607;28;20281;-79
2022/12/15 23:59:48;;;;;;;17.33;9.60;;;;;;;;;;8274761;28;20100;-79
